METAR Data
IDs: Format: Raw Decoded Include TAF

Data at: 0646 UTC 18 Sep 2021

LFMD 180630Z AUTO 01004KT 340V060 CAVOK 18/16 Q1012 TEMPO BKN014